createdAt,value
2019-05-23T03:02:58.404Z,6.40
2019-05-23T03:05:27.063Z,6.30
2019-05-23T03:07:56.204Z,6.30
2019-05-23T03:10:26.749Z,6.30
2019-05-23T03:12:55.587Z,6.30
2019-05-23T03:15:25.140Z,6.30
2019-05-23T03:17:55.596Z,6.40
2019-05-23T03:20:24.504Z,6.30
2019-05-23T03:22:58.487Z,6.30
2019-05-23T03:26:08.324Z,6.30
2019-05-23T03:28:40.590Z,6.30
2019-05-23T03:31:28.149Z,6.30
2019-05-23T03:33:44.035Z,6.30
2019-05-23T03:36:13.251Z,6.20
2019-05-23T03:38:42.287Z,6.20
2019-05-23T03:41:10.936Z,6.30
2019-05-23T03:43:42.065Z,6.20
2019-05-23T03:46:13.218Z,6.20
2019-05-23T03:48:42.124Z,6.20
2019-05-23T03:51:12.436Z,6.20
2019-05-23T03:53:42.294Z,6.20
2019-05-23T03:56:11.141Z,6.30
2019-05-23T03:58:40.854Z,6.30
2019-05-23T04:01:11.347Z,6.40
2019-05-23T04:03:42.198Z,6.40
2019-05-23T04:06:10.841Z,6.50
2019-05-23T04:08:40.337Z,6.50
2019-05-23T04:11:09.172Z,6.50
2019-05-23T04:13:38.647Z,6.60
2019-05-23T04:16:07.391Z,6.60
2019-05-23T04:18:35.965Z,6.60
2019-05-23T04:21:04.843Z,6.60
2019-05-23T04:23:33.443Z,6.60
2019-05-23T04:26:02.293Z,6.70
2019-05-23T04:28:30.949Z,6.70
2019-05-23T04:31:00.461Z,6.70
2019-05-23T04:33:29.011Z,6.70
2019-05-23T04:35:57.610Z,6.70
2019-05-23T04:38:26.199Z,6.60
2019-05-23T04:40:54.856Z,6.60
2019-05-23T04:43:23.735Z,6.60
2019-05-23T04:45:52.315Z,6.60
2019-05-23T04:48:20.882Z,6.60
2019-05-23T04:50:49.476Z,6.70
2019-05-23T04:53:18.826Z,6.70
2019-05-23T04:55:47.860Z,6.70
2019-05-23T04:58:17.019Z,6.80
2019-05-23T05:00:45.747Z,6.80
2019-05-23T05:03:17.929Z,6.90
2019-05-23T05:05:45.666Z,7.00
2019-05-23T05:08:15.038Z,7.00
2019-05-23T05:10:44.990Z,7.10
2019-05-23T05:13:13.590Z,7.20
2019-05-23T05:15:42.492Z,7.30
2019-05-23T05:18:11.439Z,7.30
2019-05-23T05:20:40.321Z,7.40
2019-05-23T05:23:08.895Z,7.50
2019-05-23T05:25:37.856Z,7.50
2019-05-23T05:28:06.768Z,7.60
2019-05-23T05:30:35.841Z,7.70
2019-05-23T05:33:04.516Z,7.80
2019-05-23T05:35:35.096Z,7.90
2019-05-23T05:38:03.765Z,8.00
2019-05-23T05:40:33.128Z,8.10
2019-05-23T05:43:01.921Z,8.20
2019-05-23T05:45:31.499Z,8.20
2019-05-23T05:48:00.356Z,8.30
2019-05-23T05:50:29.425Z,8.30
2019-05-23T05:52:58.385Z,8.30
2019-05-23T05:55:27.040Z,8.30
2019-05-23T05:57:55.651Z,8.40
2019-05-23T06:00:43.510Z,8.40
2019-05-23T06:03:12.675Z,8.50
2019-05-23T06:06:00.349Z,8.60
2019-05-23T06:08:30.780Z,8.70
2019-05-23T06:10:59.503Z,8.80
2019-05-23T06:13:28.308Z,8.90
2019-05-23T06:16:00.107Z,9.00
2019-05-23T06:18:31.875Z,9.00
2019-05-23T06:21:02.477Z,9.10
2019-05-23T06:23:31.832Z,9.20
2019-05-23T06:26:00.489Z,9.20
2019-05-23T06:28:29.324Z,9.30
2019-05-23T06:30:58.174Z,9.40
2019-05-23T06:33:26.944Z,9.50
2019-05-23T06:35:55.748Z,9.60
2019-05-23T06:38:24.689Z,9.70
2019-05-23T06:40:54.439Z,9.70
2019-05-23T06:43:23.312Z,9.90
2019-05-23T06:45:51.976Z,10.10
2019-05-23T06:48:20.969Z,10.30
2019-05-23T06:50:49.855Z,10.60
2019-05-23T06:53:18.755Z,10.80
2019-05-23T06:55:47.369Z,11.00
2019-05-23T06:58:16.648Z,11.10
2019-05-23T07:00:45.277Z,11.20
2019-05-23T07:03:13.890Z,11.30
2019-05-23T07:05:42.868Z,11.30
2019-05-23T07:08:11.500Z,11.40
2019-05-23T07:10:40.977Z,11.40
2019-05-23T07:13:09.643Z,11.60
2019-05-23T07:15:38.364Z,11.60
2019-05-23T07:18:07.299Z,11.70
2019-05-23T07:20:35.867Z,11.80
2019-05-23T07:23:07.115Z,11.80
2019-05-23T07:25:35.798Z,11.90
2019-05-23T07:28:04.432Z,12.00
2019-05-23T07:30:33.015Z,12.00
2019-05-23T07:33:01.590Z,12.00
2019-05-23T07:35:30.189Z,12.10
2019-05-23T07:37:58.803Z,12.20
2019-05-23T07:40:27.842Z,12.50
2019-05-23T07:42:56.514Z,13.00
2019-05-23T07:45:30.640Z,13.70
2019-05-23T07:47:59.907Z,14.50
2019-05-23T07:50:28.491Z,15.20
2019-05-23T07:52:58.871Z,16.00
2019-05-23T07:55:37.943Z,16.40
2019-05-23T07:58:07.196Z,16.70
2019-05-23T08:00:39.572Z,17.40
2019-05-23T08:03:08.707Z,17.50
2019-05-23T08:05:37.288Z,17.80
2019-05-23T08:08:05.980Z,18.10
2019-05-23T08:10:35.207Z,18.60
2019-05-23T08:13:03.812Z,18.40
2019-05-23T08:15:32.391Z,18.90
2019-05-23T08:18:00.958Z,19.00
2019-05-23T08:20:29.619Z,19.40
2019-05-23T08:22:58.199Z,19.60
2019-05-23T08:25:27.040Z,19.70
2019-05-23T08:27:55.681Z,20.10
2019-05-23T08:30:25.533Z,20.30
2019-05-23T08:32:54.499Z,20.70
2019-05-23T08:35:23.062Z,20.70
2019-05-23T08:37:52.136Z,20.40
2019-05-23T08:40:22.368Z,20.50
2019-05-23T08:42:51.498Z,20.80
2019-05-23T08:45:20.135Z,21.00
2019-05-23T08:47:48.783Z,21.00
2019-05-23T08:50:18.367Z,21.00
2019-05-23T08:52:46.992Z,21.10
2019-05-23T08:55:20.279Z,21.50
2019-05-23T08:57:48.948Z,22.10
2019-05-23T09:00:17.972Z,22.50
2019-05-23T09:02:48.127Z,22.10
2019-05-23T09:05:17.616Z,21.70
2019-05-23T09:07:46.287Z,22.10
2019-05-23T09:10:15.674Z,22.20
2019-05-23T09:12:44.930Z,22.20
2019-05-23T09:15:14.063Z,21.40
2019-05-23T09:17:52.800Z,20.50
2019-05-23T09:20:14.162Z,19.70
2019-05-23T09:22:42.999Z,18.80
2019-05-23T09:25:11.841Z,18.50
2019-05-23T09:27:40.461Z,18.90
2019-05-23T09:30:09.480Z,19.30
2019-05-23T09:32:38.044Z,19.70
2019-05-23T09:35:20.331Z,20.00
2019-05-23T09:37:37.411Z,20.10
2019-05-23T09:40:06.345Z,20.20
2019-05-23T09:42:34.926Z,20.00
2019-05-23T09:45:03.503Z,19.80
2019-05-23T09:47:32.153Z,20.10
2019-05-23T09:50:00.727Z,20.40
2019-05-23T09:52:30.399Z,20.20
2019-05-23T09:54:59.051Z,19.90
2019-05-23T09:57:28.523Z,20.00
2019-05-23T09:59:57.256Z,19.60
2019-05-23T10:02:27.504Z,19.30
2019-05-23T10:04:57.116Z,18.90
2019-05-23T10:07:26.146Z,19.10
2019-05-23T10:09:54.792Z,19.50
2019-05-23T10:12:23.493Z,19.30
2019-05-23T10:14:52.080Z,19.10
2019-05-23T10:17:20.771Z,18.80
2019-05-23T10:19:49.342Z,18.60
2019-05-23T10:22:17.944Z,18.30
2019-05-23T10:24:46.520Z,18.60
2019-05-23T10:27:16.802Z,19.20
2019-05-23T10:29:45.440Z,19.90
2019-05-23T10:32:14.125Z,20.70
2019-05-23T10:34:42.719Z,21.20
2019-05-23T10:37:14.423Z,21.50
2019-05-23T10:39:46.664Z,21.30
2019-05-23T10:42:15.226Z,21.40
2019-05-23T10:44:44.945Z,21.60
2019-05-23T10:47:14.190Z,21.50
2019-05-23T10:49:42.974Z,21.30
2019-05-23T10:52:11.577Z,21.40
2019-05-23T10:54:40.524Z,21.80
2019-05-23T10:57:09.174Z,22.00
2019-05-23T10:59:37.869Z,22.20
2019-05-23T11:02:07.435Z,22.10
2019-05-23T11:04:46.064Z,22.00
2019-05-23T11:07:49.517Z,22.40
2019-05-23T11:10:18.531Z,22.50
2019-05-23T11:12:47.347Z,22.40
2019-05-23T11:15:16.299Z,22.40
2019-05-23T11:17:45.199Z,22.50
2019-05-23T11:20:13.887Z,22.10
2019-05-23T11:22:42.895Z,21.60
2019-05-23T11:25:13.576Z,21.90
2019-05-23T11:27:42.224Z,22.10
2019-05-23T11:30:14.412Z,22.10
2019-05-23T11:32:43.221Z,22.20
2019-05-23T11:35:15.125Z,22.50
2019-05-23T11:37:43.709Z,22.20
2019-05-23T11:40:12.794Z,21.70
2019-05-23T11:42:43.838Z,21.20
2019-05-23T11:45:12.530Z,20.50
2019-05-23T11:47:41.417Z,20.10
2019-05-23T11:50:10.188Z,20.40
2019-05-23T11:52:39.335Z,20.70
2019-05-23T11:55:08.263Z,21.10
2019-05-23T11:57:38.464Z,20.90
2019-05-23T12:00:09.065Z,20.80
2019-05-23T12:02:41.165Z,21.20
2019-05-23T12:05:13.840Z,21.90
2019-05-23T12:07:42.526Z,22.70
2019-05-23T12:10:11.740Z,23.00
2019-05-23T12:12:40.349Z,22.90
2019-05-23T12:15:11.106Z,23.30
2019-05-23T12:17:39.792Z,23.10
2019-05-23T12:20:08.829Z,22.90
2019-05-23T12:22:37.904Z,23.30
2019-05-23T12:25:21.358Z,23.20
2019-05-23T12:27:37.553Z,23.70
2019-05-23T12:30:07.963Z,24.30
2019-05-23T12:32:36.599Z,24.40
2019-05-23T12:35:11.178Z,23.60
2019-05-23T12:37:36.123Z,23.60
2019-05-23T12:40:05.271Z,23.30
2019-05-23T12:42:34.077Z,22.80
2019-05-23T12:45:03.160Z,22.80
2019-05-23T12:47:44.925Z,22.70
2019-05-23T12:50:16.448Z,22.10
2019-05-23T12:52:45.279Z,21.60
2019-05-23T12:55:13.921Z,21.60
2019-05-23T12:57:42.576Z,21.60
2019-05-23T13:00:17.180Z,21.70
2019-05-23T13:02:46.278Z,21.50
2019-05-23T13:05:15.073Z,22.10
2019-05-23T13:07:44.592Z,22.20
2019-05-23T13:10:14.595Z,22.40
2019-05-23T13:12:43.355Z,22.40
2019-05-23T13:15:12.262Z,22.70
2019-05-23T13:17:41.084Z,22.80
2019-05-23T13:20:09.863Z,23.20
2019-05-23T13:22:38.501Z,23.20
2019-05-23T13:25:07.752Z,23.60
2019-05-23T13:27:36.426Z,23.80
2019-05-23T13:30:05.483Z,23.80
2019-05-23T13:32:34.742Z,23.60
2019-05-23T13:35:03.466Z,23.40
2019-05-23T13:37:32.088Z,23.30
2019-05-23T13:40:00.678Z,23.20
2019-05-23T13:42:29.575Z,23.10
2019-05-23T13:44:58.387Z,22.90
2019-05-23T13:47:26.996Z,23.10
2019-05-23T13:49:55.688Z,23.20
2019-05-23T13:52:24.362Z,23.20
2019-05-23T13:54:52.923Z,22.90
2019-05-23T13:57:21.535Z,23.00
2019-05-23T13:59:50.100Z,22.90
2019-05-23T14:02:19.225Z,23.00
2019-05-23T14:04:48.008Z,22.70
2019-05-23T14:07:17.291Z,22.40
2019-05-23T14:09:46.041Z,22.30
2019-05-23T14:12:22.304Z,22.30
2019-05-23T14:14:45.642Z,22.30
2019-05-23T14:17:25.602Z,22.30
2019-05-23T14:19:54.191Z,22.10
2019-05-23T14:22:22.957Z,22.10
2019-05-23T14:24:51.527Z,21.90
2019-05-23T14:27:38.137Z,21.70
2019-05-23T14:30:14.443Z,21.60
2019-05-23T14:32:48.478Z,21.50
2019-05-23T14:35:19.907Z,21.50
2019-05-23T14:37:50.794Z,21.10
2019-05-23T14:40:19.360Z,20.90
2019-05-23T14:43:02.445Z,21.10
2019-05-23T14:45:41.058Z,21.00
2019-05-23T14:48:32.860Z,20.80
2019-05-23T14:51:09.077Z,20.60
2019-05-23T14:53:38.911Z,20.30
2019-05-23T14:56:08.455Z,20.30
2019-05-23T14:58:37.222Z,20.20
2019-05-23T15:01:07.164Z,20.20
2019-05-23T15:03:36.441Z,20.10
2019-05-23T15:06:05.011Z,19.90
2019-05-23T15:08:49.816Z,19.80
2019-05-23T15:11:04.588Z,19.80
2019-05-23T15:13:33.158Z,19.80
2019-05-23T15:16:01.751Z,19.70
2019-05-23T15:18:30.312Z,19.70
2019-05-23T15:20:58.955Z,19.50
2019-05-23T15:23:27.590Z,19.40
2019-05-23T15:25:56.227Z,19.30
2019-05-23T15:28:24.824Z,19.30
2019-05-23T15:30:53.380Z,19.20
2019-05-23T15:33:22.086Z,19.20
2019-05-23T15:35:50.925Z,19.20
2019-05-23T15:38:19.482Z,19.10
2019-05-23T15:40:48.068Z,19.20
2019-05-23T15:43:16.641Z,19.10
2019-05-23T15:45:45.270Z,19.10
2019-05-23T15:48:13.895Z,19.00
2019-05-23T15:50:49.982Z,19.00
2019-05-23T15:53:49.764Z,19.00
2019-05-23T15:56:43.225Z,19.00
2019-05-23T15:59:20.778Z,19.00
2019-05-23T16:02:02.971Z,18.90
2019-05-23T16:04:31.973Z,18.90
2019-05-23T16:07:00.572Z,18.90
2019-05-23T16:09:31.055Z,18.80
2019-05-23T16:11:59.888Z,18.90
2019-05-23T16:14:28.494Z,18.80
2019-05-23T16:16:57.414Z,18.80
2019-05-23T16:19:26.206Z,18.80
2019-05-23T16:21:54.989Z,18.80
2019-05-23T16:24:31.540Z,18.80
2019-05-23T16:27:01.433Z,18.70
2019-05-23T16:29:31.039Z,18.60
2019-05-23T16:31:59.683Z,18.50
2019-05-23T16:34:29.605Z,18.40
2019-05-23T16:36:58.173Z,18.40
2019-05-23T16:39:26.950Z,18.40
2019-05-23T16:41:55.850Z,18.40
2019-05-23T16:44:25.342Z,18.40
2019-05-23T16:46:54.024Z,18.40
2019-05-23T16:49:22.741Z,18.30
2019-05-23T16:51:51.324Z,18.40
2019-05-23T16:54:22.438Z,18.30
2019-05-23T16:57:01.583Z,18.30
2019-05-23T16:59:43.818Z,18.20
2019-05-23T17:02:34.681Z,18.30
2019-05-23T17:05:16.033Z,18.20
2019-05-23T17:08:05.117Z,18.20
2019-05-23T17:10:39.249Z,18.20
2019-05-23T17:13:32.524Z,18.10
2019-05-23T17:16:07.027Z,18.00
2019-05-23T17:18:56.891Z,18.00
2019-05-23T17:21:39.027Z,18.00
2019-05-23T17:24:20.921Z,18.00
2019-05-23T17:27:03.128Z,17.90
2019-05-23T17:29:41.504Z,17.80
2019-05-23T17:32:12.463Z,17.90
2019-05-23T17:34:41.036Z,17.80
2019-05-23T17:37:10.320Z,17.80
2019-05-23T17:39:39.996Z,17.80
2019-05-23T17:42:09.023Z,17.80
2019-05-23T17:44:37.647Z,17.80
2019-05-23T17:47:06.211Z,17.70
2019-05-23T17:49:35.866Z,17.70
2019-05-23T17:52:04.631Z,17.60
2019-05-23T17:54:33.286Z,17.50
2019-05-23T17:57:01.875Z,17.60
2019-05-23T17:59:30.807Z,17.60
2019-05-23T18:01:59.726Z,17.50
2019-05-23T18:04:28.702Z,17.50
2019-05-23T18:06:57.314Z,17.50
2019-05-23T18:09:26.767Z,17.40
2019-05-23T18:11:55.744Z,17.40
2019-05-23T18:14:24.304Z,17.30
2019-05-23T18:16:52.964Z,17.30
2019-05-23T18:19:21.796Z,17.20
2019-05-23T18:21:51.067Z,17.20
2019-05-23T18:24:20.440Z,17.10
2019-05-23T18:26:49.161Z,17.00
2019-05-23T18:29:18.163Z,16.90
2019-05-23T18:31:47.707Z,16.80
2019-05-23T18:34:16.350Z,16.70
2019-05-23T18:36:44.946Z,16.70
2019-05-23T18:39:16.344Z,16.50
2019-05-23T18:41:45.119Z,16.40
2019-05-23T18:44:14.217Z,16.30
2019-05-23T18:46:46.464Z,16.20
2019-05-23T18:49:15.735Z,16.20
2019-05-23T18:51:44.538Z,16.10
2019-05-23T18:54:13.717Z,16.00
2019-05-23T18:56:42.273Z,15.90
2019-05-23T18:59:11.351Z,15.80
2019-05-23T19:01:40.327Z,15.70
2019-05-23T19:04:08.978Z,15.70
2019-05-23T19:06:37.573Z,15.60
2019-05-23T19:09:10.116Z,15.50
2019-05-23T19:11:38.979Z,15.40
2019-05-23T19:14:08.071Z,15.40
2019-05-23T19:16:37.121Z,15.30
2019-05-23T19:19:05.976Z,15.20
2019-05-23T19:21:35.050Z,15.10
2019-05-23T19:24:04.690Z,15.10
2019-05-23T19:26:33.256Z,15.00
2019-05-23T19:29:02.746Z,15.00
2019-05-23T19:31:31.458Z,15.00
2019-05-23T19:34:00.432Z,14.90
2019-05-23T19:36:29.169Z,14.90
2019-05-23T19:38:57.790Z,14.80
2019-05-23T19:41:36.681Z,14.70
2019-05-23T19:43:57.363Z,14.70
2019-05-23T19:46:25.932Z,14.60
2019-05-23T19:48:55.053Z,14.50
2019-05-23T19:51:23.640Z,14.50
2019-05-23T19:53:53.192Z,14.40
2019-05-23T19:56:21.748Z,14.40
2019-05-23T19:58:50.348Z,14.30
2019-05-23T20:01:20.019Z,14.30
2019-05-23T20:03:49.103Z,14.20
2019-05-23T20:06:17.791Z,14.10
2019-05-23T20:08:47.946Z,14.10
2019-05-23T20:11:16.788Z,14.00
2019-05-23T20:13:45.590Z,14.00
2019-05-23T20:16:14.491Z,13.90
2019-05-23T20:18:43.059Z,13.90
2019-05-23T20:21:11.663Z,13.80
2019-05-23T20:23:40.275Z,13.70
2019-05-23T20:26:09.428Z,13.70
2019-05-23T20:28:40.048Z,13.60
2019-05-23T20:31:09.845Z,13.70
2019-05-23T20:33:38.431Z,13.60
2019-05-23T20:36:13.188Z,13.60
2019-05-23T20:38:42.202Z,13.50
2019-05-23T20:41:10.891Z,13.40
2019-05-23T20:43:39.561Z,13.40
2019-05-23T20:46:08.126Z,13.40
2019-05-23T20:48:37.362Z,13.30
2019-05-23T20:51:05.955Z,13.30
2019-05-23T20:53:34.802Z,13.30
2019-05-23T20:56:03.487Z,13.20
2019-05-23T20:58:32.192Z,13.20
2019-05-23T21:01:11.803Z,13.20
2019-05-23T21:03:40.656Z,13.20
2019-05-23T21:06:09.536Z,13.00
2019-05-23T21:08:38.103Z,13.00
2019-05-23T21:11:06.712Z,12.90
2019-05-23T21:13:35.464Z,12.90
2019-05-23T21:16:04.215Z,13.00
2019-05-23T21:18:32.853Z,13.00
2019-05-23T21:21:01.721Z,13.00
2019-05-23T21:23:30.303Z,12.80
2019-05-23T21:26:05.123Z,12.70
2019-05-23T21:28:33.951Z,12.70
2019-05-23T21:31:02.787Z,12.70
2019-05-23T21:33:31.722Z,12.70
2019-05-23T21:36:00.355Z,12.60
2019-05-23T21:38:29.006Z,12.70
2019-05-23T21:40:57.636Z,12.70
2019-05-23T21:43:26.202Z,12.60
2019-05-23T21:45:55.356Z,12.60
2019-05-23T21:48:23.950Z,12.50
2019-05-23T21:50:52.635Z,12.40
2019-05-23T21:53:21.219Z,12.50
2019-05-23T21:55:49.846Z,12.40
2019-05-23T21:58:18.486Z,12.30
